Accueil
METAR-TAF:

METAR-TAF

Aéroports :

Aéroport de Sumburgh

Sumburgh, Shetland, Écosse

latitude: 59-53N, longitude: 001-18W, altitude: 5 m

Observation

Le bulletin a été fait il y a 36 minutes, à 07:50 UTC
Vent 19 kt de sud
Température 9°C
Humidité 81%
Pression 1023 hPa
Visibilité: 8000 m
Quelques nuages à une hauteur de 3000 ft

METAR: EGPB 230750Z 19019KT 8000 FEW030 09/06 Q1023

Heure: 08:26 (08:26 UTC)

Prévision

Le bulletin a été fait il y a 3 heures et 29 minutes, à 04:57 UTC
Prévision valable du 23 à 06 UTC au 23 à 15 UTC
Vent 15 kt de sud
Visibilité: 7000 m
Temporairement
du 23 à 06 UTC au 23 à 15 UTC
Vent 20 kt de sud avec des rafales jusqu'à 34 kt
Visibilité 10 km ou plus

TAF: EGPB 230457Z 2306/2315 18015KT 7000 NSC TEMPO 2306/2315 19020G34KT 9999

Observations et prévisions météorologiques de plus de 4000 aéroports (messages METAR et TAF).

Les stations disponibles sont représentées par des disques jaunes et rouges sur la carte.

Passer la souris dessus pour voir le nom de la station.

Cliquer dessus pour voir les observations et prévisions météorologiques.

Pour changer de carte: cliquez sur les boutons verts avec une croix noire pour zoomer, sur le bouton vert avec un tiret pour effectuer un zoom arrière, ou sur les flèches vertes pour les cartes adjacentes.


METAR-TAF: